sensor_id;sensor_type;location;lat;lon;timestamp;P1;durP1;ratioP1;P2;durP2;ratioP2
7817;SDS011;3954;52.624;9.212;2022-11-15T00:02:24;18.00;;;14.57;;
7817;SDS011;3954;52.624;9.212;2022-11-15T00:04:51;19.87;;;15.97;;
7817;SDS011;3954;52.624;9.212;2022-11-15T00:07:17;18.53;;;15.50;;
7817;SDS011;3954;52.624;9.212;2022-11-15T00:09:43;18.60;;;14.83;;
7817;SDS011;3954;52.624;9.212;2022-11-15T00:12:09;16.10;;;14.40;;
7817;SDS011;3954;52.624;9.212;2022-11-15T00:14:37;17.67;;;14.93;;
7817;SDS011;3954;52.624;9.212;2022-11-15T00:17:03;17.27;;;14.20;;
7817;SDS011;3954;52.624;9.212;2022-11-15T00:19:29;16.10;;;13.30;;
7817;SDS011;3954;52.624;9.212;2022-11-15T00:21:56;17.00;;;13.70;;
7817;SDS011;3954;52.624;9.212;2022-11-15T00:24:22;18.97;;;14.50;;
7817;SDS011;3954;52.624;9.212;2022-11-15T00:26:48;16.33;;;13.77;;
7817;SDS011;3954;52.624;9.212;2022-11-15T00:29:14;16.17;;;13.60;;
7817;SDS011;3954;52.624;9.212;2022-11-15T00:31:41;16.37;;;13.63;;
7817;SDS011;3954;52.624;9.212;2022-11-15T00:34:08;16.20;;;13.60;;
7817;SDS011;3954;52.624;9.212;2022-11-15T00:36:34;16.00;;;13.40;;
7817;SDS011;3954;52.624;9.212;2022-11-15T00:39:00;15.77;;;12.63;;
7817;SDS011;3954;52.624;9.212;2022-11-15T00:41:26;14.50;;;12.90;;
7817;SDS011;3954;52.624;9.212;2022-11-15T00:43:52;16.67;;;12.93;;
7817;SDS011;3954;52.624;9.212;2022-11-15T00:46:18;14.77;;;12.97;;
7817;SDS011;3954;52.624;9.212;2022-11-15T00:48:46;15.03;;;13.07;;
7817;SDS011;3954;52.624;9.212;2022-11-15T00:51:12;13.43;;;12.03;;
7817;SDS011;3954;52.624;9.212;2022-11-15T00:53:38;13.20;;;11.90;;
7817;SDS011;3954;52.624;9.212;2022-11-15T00:56:04;13.10;;;11.70;;
7817;SDS011;3954;52.624;9.212;2022-11-15T00:58:30;12.67;;;11.37;;
7817;SDS011;3954;52.624;9.212;2022-11-15T01:00:56;15.40;;;11.70;;
7817;SDS011;3954;52.624;9.212;2022-11-15T01:03:22;13.83;;;11.57;;
7817;SDS011;3954;52.624;9.212;2022-11-15T01:05:49;11.60;;;10.40;;
7817;SDS011;3954;52.624;9.212;2022-11-15T01:08:16;11.20;;;9.70;;
7817;SDS011;3954;52.624;9.212;2022-11-15T01:10:42;11.37;;;9.17;;
7817;SDS011;3954;52.624;9.212;2022-11-15T01:13:08;10.70;;;9.47;;
7817;SDS011;3954;52.624;9.212;2022-11-15T01:15:34;10.90;;;9.60;;
7817;SDS011;3954;52.624;9.212;2022-11-15T01:18:04;12.67;;;9.60;;
7817;SDS011;3954;52.624;9.212;2022-11-15T01:20:30;10.53;;;9.00;;
7817;SDS011;3954;52.624;9.212;2022-11-15T01:22:57;11.03;;;9.27;;
7817;SDS011;3954;52.624;9.212;2022-11-15T01:25:23;10.53;;;9.27;;
7817;SDS011;3954;52.624;9.212;2022-11-15T01:27:49;9.83;;;8.80;;
7817;SDS011;3954;52.624;9.212;2022-11-15T01:30:15;10.77;;;9.10;;
7817;SDS011;3954;52.624;9.212;2022-11-15T01:32:41;10.47;;;9.07;;
7817;SDS011;3954;52.624;9.212;2022-11-15T01:35:07;10.60;;;9.00;;
7817;SDS011;3954;52.624;9.212;2022-11-15T01:37:33;10.37;;;8.33;;
7817;SDS011;3954;52.624;9.212;2022-11-15T01:40:01;11.27;;;8.30;;
7817;SDS011;3954;52.624;9.212;2022-11-15T01:42:28;9.47;;;8.20;;
7817;SDS011;3954;52.624;9.212;2022-11-15T01:44:54;9.13;;;8.10;;
7817;SDS011;3954;52.624;9.212;2022-11-15T01:47:21;9.00;;;7.73;;
7817;SDS011;3954;52.624;9.212;2022-11-15T01:49:51;8.63;;;7.73;;
7817;SDS011;3954;52.624;9.212;2022-11-15T01:52:19;8.27;;;7.30;;
7817;SDS011;3954;52.624;9.212;2022-11-15T01:54:46;9.30;;;7.63;;
7817;SDS011;3954;52.624;9.212;2022-11-15T01:57:14;8.80;;;7.90;;
7817;SDS011;3954;52.624;9.212;2022-11-15T01:59:40;8.67;;;6.93;;
7817;SDS011;3954;52.624;9.212;2022-11-15T02:02:07;8.73;;;7.13;;
7817;SDS011;3954;52.624;9.212;2022-11-15T02:04:35;9.60;;;7.83;;
7817;SDS011;3954;52.624;9.212;2022-11-15T02:07:01;7.73;;;6.87;;
7817;SDS011;3954;52.624;9.212;2022-11-15T02:09:28;9.07;;;6.67;;
7817;SDS011;3954;52.624;9.212;2022-11-15T02:11:54;11.30;;;7.33;;
7817;SDS011;3954;52.624;9.212;2022-11-15T02:14:22;7.10;;;6.40;;
7817;SDS011;3954;52.624;9.212;2022-11-15T02:16:51;7.40;;;6.63;;
7817;SDS011;3954;52.624;9.212;2022-11-15T02:19:23;8.07;;;7.17;;
7817;SDS011;3954;52.624;9.212;2022-11-15T02:21:56;7.30;;;6.60;;
7817;SDS011;3954;52.624;9.212;2022-11-15T02:24:32;8.70;;;7.43;;
7817;SDS011;3954;52.624;9.212;2022-11-15T02:29:58;8.83;;;7.00;;
7817;SDS011;3954;52.624;9.212;2022-11-15T02:32:28;8.23;;;7.37;;
7817;SDS011;3954;52.624;9.212;2022-11-15T02:35:00;8.20;;;7.40;;
7817;SDS011;3954;52.624;9.212;2022-11-15T02:37:30;8.57;;;7.60;;
7817;SDS011;3954;52.624;9.212;2022-11-15T02:39:59;8.60;;;7.67;;
7817;SDS011;3954;52.624;9.212;2022-11-15T02:42:28;9.23;;;7.97;;
7817;SDS011;3954;52.624;9.212;2022-11-15T02:45:17;9.23;;;7.97;;
7817;SDS011;3954;52.624;9.212;2022-11-15T02:47:46;12.17;;;8.17;;
7817;SDS011;3954;52.624;9.212;2022-11-15T02:50:16;11.00;;;8.30;;
7817;SDS011;3954;52.624;9.212;2022-11-15T02:52:44;10.30;;;8.03;;
7817;SDS011;3954;52.624;9.212;2022-11-15T02:57:52;10.27;;;8.30;;
7817;SDS011;3954;52.624;9.212;2022-11-15T03:00:20;9.17;;;8.13;;
7817;SDS011;3954;52.624;9.212;2022-11-15T03:02:58;9.80;;;8.37;;
7817;SDS011;3954;52.624;9.212;2022-11-15T03:05:30;9.13;;;8.20;;
7817;SDS011;3954;52.624;9.212;2022-11-15T03:08:00;10.50;;;7.93;;
7817;SDS011;3954;52.624;9.212;2022-11-15T03:10:30;12.23;;;8.20;;
7817;SDS011;3954;52.624;9.212;2022-11-15T03:12:59;9.77;;;8.20;;
7817;SDS011;3954;52.624;9.212;2022-11-15T03:15:27;10.00;;;7.70;;
7817;SDS011;3954;52.624;9.212;2022-11-15T03:17:55;8.63;;;7.57;;
7817;SDS011;3954;52.624;9.212;2022-11-15T03:20:26;11.73;;;8.03;;
7817;SDS011;3954;52.624;9.212;2022-11-15T03:22:53;10.13;;;9.13;;
7817;SDS011;3954;52.624;9.212;2022-11-15T03:25:22;13.80;;;8.43;;
7817;SDS011;3954;52.624;9.212;2022-11-15T03:27:50;8.87;;;7.93;;
7817;SDS011;3954;52.624;9.212;2022-11-15T03:30:17;9.17;;;8.17;;
7817;SDS011;3954;52.624;9.212;2022-11-15T03:32:44;8.73;;;7.83;;
7817;SDS011;3954;52.624;9.212;2022-11-15T03:35:11;8.83;;;7.83;;
7817;SDS011;3954;52.624;9.212;2022-11-15T03:37:40;10.60;;;8.03;;
7817;SDS011;3954;52.624;9.212;2022-11-15T03:40:07;9.17;;;8.23;;
7817;SDS011;3954;52.624;9.212;2022-11-15T03:42:34;11.27;;;8.80;;
7817;SDS011;3954;52.624;9.212;2022-11-15T03:45:06;11.63;;;8.47;;
7817;SDS011;3954;52.624;9.212;2022-11-15T03:47:35;11.10;;;8.30;;
7817;SDS011;3954;52.624;9.212;2022-11-15T03:50:03;9.03;;;8.10;;
7817;SDS011;3954;52.624;9.212;2022-11-15T03:52:31;11.50;;;8.63;;
7817;SDS011;3954;52.624;9.212;2022-11-15T03:54:59;11.07;;;8.77;;
7817;SDS011;3954;52.624;9.212;2022-11-15T03:57:26;13.37;;;8.43;;
7817;SDS011;3954;52.624;9.212;2022-11-15T03:59:52;12.57;;;8.70;;
7817;SDS011;3954;52.624;9.212;2022-11-15T04:02:18;8.93;;;8.03;;
7817;SDS011;3954;52.624;9.212;2022-11-15T04:04:44;9.27;;;8.27;;
7817;SDS011;3954;52.624;9.212;2022-11-15T04:07:10;11.73;;;9.57;;
7817;SDS011;3954;52.624;9.212;2022-11-15T04:09:36;10.83;;;8.97;;
7817;SDS011;3954;52.624;9.212;2022-11-15T04:12:22;10.60;;;8.90;;
7817;SDS011;3954;52.624;9.212;2022-11-15T04:14:58;10.17;;;8.60;;
7817;SDS011;3954;52.624;9.212;2022-11-15T04:17:34;11.80;;;8.53;;
7817;SDS011;3954;52.624;9.212;2022-11-15T04:20:00;9.63;;;8.63;;
7817;SDS011;3954;52.624;9.212;2022-11-15T04:22:45;9.13;;;8.23;;
7817;SDS011;3954;52.624;9.212;2022-11-15T04:25:30;11.00;;;8.87;;
7817;SDS011;3954;52.624;9.212;2022-11-15T04:27:57;10.50;;;8.60;;
7817;SDS011;3954;52.624;9.212;2022-11-15T04:30:23;11.43;;;9.73;;
7817;SDS011;3954;52.624;9.212;2022-11-15T04:32:49;11.17;;;8.80;;
7817;SDS011;3954;52.624;9.212;2022-11-15T04:35:15;11.30;;;8.63;;
7817;SDS011;3954;52.624;9.212;2022-11-15T04:37:41;9.07;;;8.17;;
7817;SDS011;3954;52.624;9.212;2022-11-15T04:40:07;9.57;;;8.10;;
7817;SDS011;3954;52.624;9.212;2022-11-15T04:42:34;9.93;;;8.93;;
7817;SDS011;3954;52.624;9.212;2022-11-15T04:45:01;9.43;;;8.17;;
7817;SDS011;3954;52.624;9.212;2022-11-15T04:47:27;8.73;;;7.83;;
7817;SDS011;3954;52.624;9.212;2022-11-15T04:49:54;13.37;;;8.03;;
7817;SDS011;3954;52.624;9.212;2022-11-15T04:52:20;10.30;;;7.90;;
7817;SDS011;3954;52.624;9.212;2022-11-15T04:54:46;10.10;;;8.20;;
7817;SDS011;3954;52.624;9.212;2022-11-15T04:57:12;11.37;;;8.23;;
7817;SDS011;3954;52.624;9.212;2022-11-15T04:59:38;9.17;;;8.23;;
7817;SDS011;3954;52.624;9.212;2022-11-15T05:02:05;11.27;;;7.80;;
7817;SDS011;3954;52.624;9.212;2022-11-15T05:04:32;8.87;;;7.60;;
7817;SDS011;3954;52.624;9.212;2022-11-15T05:06:58;9.70;;;8.30;;
7817;SDS011;3954;52.624;9.212;2022-11-15T05:09:24;8.50;;;7.50;;
7817;SDS011;3954;52.624;9.212;2022-11-15T05:11:50;8.77;;;7.07;;
7817;SDS011;3954;52.624;9.212;2022-11-15T05:14:16;10.23;;;7.60;;
7817;SDS011;3954;52.624;9.212;2022-11-15T05:16:42;11.33;;;7.40;;
7817;SDS011;3954;52.624;9.212;2022-11-15T05:19:10;10.43;;;7.80;;
7817;SDS011;3954;52.624;9.212;2022-11-15T05:21:36;8.20;;;7.33;;
7817;SDS011;3954;52.624;9.212;2022-11-15T05:24:02;11.47;;;7.60;;
7817;SDS011;3954;52.624;9.212;2022-11-15T05:26:28;7.80;;;6.63;;
7817;SDS011;3954;52.624;9.212;2022-11-15T05:28:55;10.83;;;6.73;;
7817;SDS011;3954;52.624;9.212;2022-11-15T05:31:21;8.97;;;6.97;;
7817;SDS011;3954;52.624;9.212;2022-11-15T05:33:48;8.73;;;6.87;;
7817;SDS011;3954;52.624;9.212;2022-11-15T05:36:16;9.17;;;7.00;;
7817;SDS011;3954;52.624;9.212;2022-11-15T05:38:42;8.10;;;6.33;;
7817;SDS011;3954;52.624;9.212;2022-11-15T05:41:09;8.67;;;6.90;;
7817;SDS011;3954;52.624;9.212;2022-11-15T05:43:36;7.43;;;6.73;;
7817;SDS011;3954;52.624;9.212;2022-11-15T05:46:04;8.17;;;6.47;;
7817;SDS011;3954;52.624;9.212;2022-11-15T05:48:30;8.67;;;6.90;;
7817;SDS011;3954;52.624;9.212;2022-11-15T05:50:56;9.90;;;6.80;;
7817;SDS011;3954;52.624;9.212;2022-11-15T05:53:24;6.83;;;6.10;;
7817;SDS011;3954;52.624;9.212;2022-11-15T05:55:50;7.10;;;6.40;;
7817;SDS011;3954;52.624;9.212;2022-11-15T05:58:17;10.67;;;6.93;;
7817;SDS011;3954;52.624;9.212;2022-11-15T06:00:43;7.10;;;6.40;;
7817;SDS011;3954;52.624;9.212;2022-11-15T06:03:09;7.47;;;6.57;;
7817;SDS011;3954;52.624;9.212;2022-11-15T06:05:35;7.90;;;6.60;;
7817;SDS011;3954;52.624;9.212;2022-11-15T06:08:01;7.53;;;6.67;;
7817;SDS011;3954;52.624;9.212;2022-11-15T06:10:29;8.53;;;6.70;;
7817;SDS011;3954;52.624;9.212;2022-11-15T06:12:58;8.50;;;6.70;;
7817;SDS011;3954;52.624;9.212;2022-11-15T06:15:24;7.63;;;6.80;;
7817;SDS011;3954;52.624;9.212;2022-11-15T06:17:50;10.00;;;6.70;;
7817;SDS011;3954;52.624;9.212;2022-11-15T06:20:17;7.13;;;6.43;;
7817;SDS011;3954;52.624;9.212;2022-11-15T06:22:43;8.33;;;7.30;;
7817;SDS011;3954;52.624;9.212;2022-11-15T06:25:09;8.10;;;6.50;;
7817;SDS011;3954;52.624;9.212;2022-11-15T06:27:36;10.17;;;6.33;;
7817;SDS011;3954;52.624;9.212;2022-11-15T06:30:02;9.97;;;6.30;;
7817;SDS011;3954;52.624;9.212;2022-11-15T06:32:29;8.63;;;6.87;;
7817;SDS011;3954;52.624;9.212;2022-11-15T06:34:55;8.10;;;6.40;;
7817;SDS011;3954;52.624;9.212;2022-11-15T06:37:21;6.97;;;6.23;;
7817;SDS011;3954;52.624;9.212;2022-11-15T06:39:47;7.93;;;6.13;;
7817;SDS011;3954;52.624;9.212;2022-11-15T06:42:13;7.87;;;6.27;;
7817;SDS011;3954;52.624;9.212;2022-11-15T06:44:41;6.90;;;6.20;;
7817;SDS011;3954;52.624;9.212;2022-11-15T06:47:07;8.03;;;5.97;;
7817;SDS011;3954;52.624;9.212;2022-11-15T06:49:35;6.77;;;6.03;;
7817;SDS011;3954;52.624;9.212;2022-11-15T06:52:02;7.07;;;5.43;;
7817;SDS011;3954;52.624;9.212;2022-11-15T06:54:28;6.00;;;5.40;;
7817;SDS011;3954;52.624;9.212;2022-11-15T06:56:54;7.47;;;6.13;;
7817;SDS011;3954;52.624;9.212;2022-11-15T06:59:20;6.57;;;5.87;;
7817;SDS011;3954;52.624;9.212;2022-11-15T07:01:48;7.33;;;5.80;;
7817;SDS011;3954;52.624;9.212;2022-11-15T07:04:14;6.80;;;5.30;;
7817;SDS011;3954;52.624;9.212;2022-11-15T07:06:40;6.67;;;5.67;;
7817;SDS011;3954;52.624;9.212;2022-11-15T07:09:06;6.67;;;5.60;;
7817;SDS011;3954;52.624;9.212;2022-11-15T07:11:32;6.53;;;5.30;;
7817;SDS011;3954;52.624;9.212;2022-11-15T07:13:59;6.00;;;5.37;;
7817;SDS011;3954;52.624;9.212;2022-11-15T07:16:25;5.90;;;5.33;;
7817;SDS011;3954;52.624;9.212;2022-11-15T07:18:52;6.87;;;5.50;;
7817;SDS011;3954;52.624;9.212;2022-11-15T07:21:18;7.00;;;5.70;;
7817;SDS011;3954;52.624;9.212;2022-11-15T07:23:44;7.50;;;5.60;;
7817;SDS011;3954;52.624;9.212;2022-11-15T07:26:10;6.07;;;5.47;;
7817;SDS011;3954;52.624;9.212;2022-11-15T07:28:37;6.13;;;5.37;;
7817;SDS011;3954;52.624;9.212;2022-11-15T07:31:03;6.53;;;5.53;;
7817;SDS011;3954;52.624;9.212;2022-11-15T07:33:29;5.43;;;5.03;;
7817;SDS011;3954;52.624;9.212;2022-11-15T07:35:59;6.17;;;5.57;;
7817;SDS011;3954;52.624;9.212;2022-11-15T07:38:28;5.70;;;5.17;;
7817;SDS011;3954;52.624;9.212;2022-11-15T07:40:58;6.47;;;5.17;;
7817;SDS011;3954;52.624;9.212;2022-11-15T07:43:24;6.10;;;5.10;;
7817;SDS011;3954;52.624;9.212;2022-11-15T07:45:52;5.67;;;5.07;;
7817;SDS011;3954;52.624;9.212;2022-11-15T07:48:19;6.33;;;5.43;;
7817;SDS011;3954;52.624;9.212;2022-11-15T07:50:45;5.73;;;5.20;;
7817;SDS011;3954;52.624;9.212;2022-11-15T07:53:12;6.43;;;5.37;;
7817;SDS011;3954;52.624;9.212;2022-11-15T07:55:39;7.63;;;5.87;;
7817;SDS011;3954;52.624;9.212;2022-11-15T07:58:06;6.57;;;5.80;;
7817;SDS011;3954;52.624;9.212;2022-11-15T08:00:32;5.70;;;5.20;;
7817;SDS011;3954;52.624;9.212;2022-11-15T08:03:02;6.73;;;6.00;;
7817;SDS011;3954;52.624;9.212;2022-11-15T08:05:28;8.70;;;6.27;;
7817;SDS011;3954;52.624;9.212;2022-11-15T08:07:54;6.83;;;5.60;;
7817;SDS011;3954;52.624;9.212;2022-11-15T08:10:22;7.10;;;5.63;;
7817;SDS011;3954;52.624;9.212;2022-11-15T08:12:55;6.10;;;5.50;;
7817;SDS011;3954;52.624;9.212;2022-11-15T08:15:21;6.40;;;5.80;;
7817;SDS011;3954;52.624;9.212;2022-11-15T08:17:50;6.03;;;5.53;;
7817;SDS011;3954;52.624;9.212;2022-11-15T08:20:18;6.27;;;5.53;;
7817;SDS011;3954;52.624;9.212;2022-11-15T08:22:44;6.13;;;5.50;;
7817;SDS011;3954;52.624;9.212;2022-11-15T08:25:10;7.30;;;5.00;;
7817;SDS011;3954;52.624;9.212;2022-11-15T08:27:38;5.67;;;5.07;;
7817;SDS011;3954;52.624;9.212;2022-11-15T08:30:04;7.03;;;5.33;;
7817;SDS011;3954;52.624;9.212;2022-11-15T08:32:31;7.13;;;5.27;;
7817;SDS011;3954;52.624;9.212;2022-11-15T08:34:57;6.40;;;4.90;;
7817;SDS011;3954;52.624;9.212;2022-11-15T08:37:23;5.63;;;5.13;;
7817;SDS011;3954;52.624;9.212;2022-11-15T08:39:49;5.27;;;4.77;;
7817;SDS011;3954;52.624;9.212;2022-11-15T08:42:15;5.80;;;4.73;;
7817;SDS011;3954;52.624;9.212;2022-11-15T08:44:43;6.27;;;4.93;;
7817;SDS011;3954;52.624;9.212;2022-11-15T08:47:09;5.30;;;4.63;;
7817;SDS011;3954;52.624;9.212;2022-11-15T08:49:36;5.23;;;4.70;;
7817;SDS011;3954;52.624;9.212;2022-11-15T08:52:02;4.97;;;4.47;;
7817;SDS011;3954;52.624;9.212;2022-11-15T08:54:28;4.60;;;3.80;;
7817;SDS011;3954;52.624;9.212;2022-11-15T08:56:54;4.60;;;4.20;;
7817;SDS011;3954;52.624;9.212;2022-11-15T08:59:20;5.10;;;4.60;;
7817;SDS011;3954;52.624;9.212;2022-11-15T09:01:48;4.60;;;4.00;;
7817;SDS011;3954;52.624;9.212;2022-11-15T09:04:14;6.60;;;4.70;;
7817;SDS011;3954;52.624;9.212;2022-11-15T09:06:40;5.70;;;4.20;;
7817;SDS011;3954;52.624;9.212;2022-11-15T09:09:06;7.57;;;4.67;;
7817;SDS011;3954;52.624;9.212;2022-11-15T09:11:32;5.80;;;4.30;;
7817;SDS011;3954;52.624;9.212;2022-11-15T09:13:58;5.37;;;4.20;;
7817;SDS011;3954;52.624;9.212;2022-11-15T09:16:24;4.73;;;4.23;;
7817;SDS011;3954;52.624;9.212;2022-11-15T09:18:51;5.10;;;4.10;;
7817;SDS011;3954;52.624;9.212;2022-11-15T09:21:18;5.77;;;4.47;;
7817;SDS011;3954;52.624;9.212;2022-11-15T09:23:44;6.53;;;4.47;;
7817;SDS011;3954;52.624;9.212;2022-11-15T09:26:10;6.73;;;4.90;;
7817;SDS011;3954;52.624;9.212;2022-11-15T09:28:36;5.47;;;4.53;;
7817;SDS011;3954;52.624;9.212;2022-11-15T09:31:04;4.20;;;3.80;;
7817;SDS011;3954;52.624;9.212;2022-11-15T09:33:30;4.90;;;4.00;;
7817;SDS011;3954;52.624;9.212;2022-11-15T09:36:00;5.50;;;4.00;;
7817;SDS011;3954;52.624;9.212;2022-11-15T09:38:27;4.37;;;3.60;;
7817;SDS011;3954;52.624;9.212;2022-11-15T09:40:56;4.60;;;3.70;;
7817;SDS011;3954;52.624;9.212;2022-11-15T09:43:26;3.73;;;3.27;;
7817;SDS011;3954;52.624;9.212;2022-11-15T09:45:56;3.40;;;3.07;;
7817;SDS011;3954;52.624;9.212;2022-11-15T09:48:38;3.80;;;3.10;;
7817;SDS011;3954;52.624;9.212;2022-11-15T09:51:12;5.00;;;3.57;;
7817;SDS011;3954;52.624;9.212;2022-11-15T09:53:41;5.07;;;2.97;;
7817;SDS011;3954;52.624;9.212;2022-11-15T09:56:11;3.53;;;2.67;;
7817;SDS011;3954;52.624;9.212;2022-11-15T09:58:41;4.30;;;2.90;;
7817;SDS011;3954;52.624;9.212;2022-11-15T10:01:12;4.63;;;2.63;;
7817;SDS011;3954;52.624;9.212;2022-11-15T10:03:41;3.70;;;2.73;;
7817;SDS011;3954;52.624;9.212;2022-11-15T10:06:10;3.90;;;2.57;;
7817;SDS011;3954;52.624;9.212;2022-11-15T10:08:45;4.97;;;3.13;;
7817;SDS011;3954;52.624;9.212;2022-11-15T10:11:14;3.03;;;2.73;;
7817;SDS011;3954;52.624;9.212;2022-11-15T10:13:41;3.23;;;2.37;;
7817;SDS011;3954;52.624;9.212;2022-11-15T10:16:12;3.00;;;2.70;;
7817;SDS011;3954;52.624;9.212;2022-11-15T10:18:42;3.10;;;2.80;;
7817;SDS011;3954;52.624;9.212;2022-11-15T10:21:15;2.70;;;2.50;;
7817;SDS011;3954;52.624;9.212;2022-11-15T10:23:42;3.13;;;2.30;;
7817;SDS011;3954;52.624;9.212;2022-11-15T10:26:09;3.03;;;2.23;;
7817;SDS011;3954;52.624;9.212;2022-11-15T10:28:37;3.80;;;2.50;;
7817;SDS011;3954;52.624;9.212;2022-11-15T10:31:09;2.13;;;1.80;;
7817;SDS011;3954;52.624;9.212;2022-11-15T10:33:46;2.40;;;2.20;;
7817;SDS011;3954;52.624;9.212;2022-11-15T10:38:57;2.70;;;1.73;;
7817;SDS011;3954;52.624;9.212;2022-11-15T10:41:31;2.30;;;1.90;;
7817;SDS011;3954;52.624;9.212;2022-11-15T10:44:06;2.17;;;1.80;;
7817;SDS011;3954;52.624;9.212;2022-11-15T10:46:33;2.50;;;1.93;;
7817;SDS011;3954;52.624;9.212;2022-11-15T10:49:07;2.90;;;2.03;;
7817;SDS011;3954;52.624;9.212;2022-11-15T10:51:39;1.93;;;1.67;;
7817;SDS011;3954;52.624;9.212;2022-11-15T10:54:08;2.23;;;2.03;;
7817;SDS011;3954;52.624;9.212;2022-11-15T10:56:35;2.37;;;2.00;;
7817;SDS011;3954;52.624;9.212;2022-11-15T10:59:01;2.27;;;1.83;;
7817;SDS011;3954;52.624;9.212;2022-11-15T11:01:27;3.20;;;2.10;;
7817;SDS011;3954;52.624;9.212;2022-11-15T11:03:57;2.13;;;1.90;;
7817;SDS011;3954;52.624;9.212;2022-11-15T11:06:24;2.63;;;2.33;;
7817;SDS011;3954;52.624;9.212;2022-11-15T11:08:57;2.37;;;2.17;;
7817;SDS011;3954;52.624;9.212;2022-11-15T11:11:25;2.23;;;1.70;;
7817;SDS011;3954;52.624;9.212;2022-11-15T11:13:51;2.67;;;2.00;;
7817;SDS011;3954;52.624;9.212;2022-11-15T11:16:36;4.87;;;2.20;;
7817;SDS011;3954;52.624;9.212;2022-11-15T11:19:10;3.67;;;1.60;;
7817;SDS011;3954;52.624;9.212;2022-11-15T11:21:42;4.87;;;2.10;;
7817;SDS011;3954;52.624;9.212;2022-11-15T11:24:13;4.27;;;2.00;;
7817;SDS011;3954;52.624;9.212;2022-11-15T11:26:46;2.03;;;1.83;;
7817;SDS011;3954;52.624;9.212;2022-11-15T11:29:19;2.37;;;1.73;;
7817;SDS011;3954;52.624;9.212;2022-11-15T11:31:47;3.87;;;1.90;;
7817;SDS011;3954;52.624;9.212;2022-11-15T11:34:19;2.13;;;1.80;;
7817;SDS011;3954;52.624;9.212;2022-11-15T11:36:53;1.80;;;1.70;;
7817;SDS011;3954;52.624;9.212;2022-11-15T11:39:24;4.07;;;1.90;;
7817;SDS011;3954;52.624;9.212;2022-11-15T11:41:55;1.73;;;1.63;;
7817;SDS011;3954;52.624;9.212;2022-11-15T11:44:24;3.37;;;1.90;;
7817;SDS011;3954;52.624;9.212;2022-11-15T11:46:54;3.53;;;2.13;;
7817;SDS011;3954;52.624;9.212;2022-11-15T11:49:22;2.30;;;1.70;;
7817;SDS011;3954;52.624;9.212;2022-11-15T11:51:50;1.80;;;1.60;;
7817;SDS011;3954;52.624;9.212;2022-11-15T11:54:19;2.27;;;1.80;;
7817;SDS011;3954;52.624;9.212;2022-11-15T11:56:46;1.70;;;1.60;;
7817;SDS011;3954;52.624;9.212;2022-11-15T11:59:16;1.77;;;1.60;;
7817;SDS011;3954;52.624;9.212;2022-11-15T12:01:44;2.30;;;1.60;;
7817;SDS011;3954;52.624;9.212;2022-11-15T12:04:12;2.87;;;1.70;;
7817;SDS011;3954;52.624;9.212;2022-11-15T12:06:41;1.80;;;1.70;;
7817;SDS011;3954;52.624;9.212;2022-11-15T12:09:11;2.67;;;1.60;;
7817;SDS011;3954;52.624;9.212;2022-11-15T12:11:42;2.10;;;1.90;;
7817;SDS011;3954;52.624;9.212;2022-11-15T12:14:12;1.60;;;1.50;;
7817;SDS011;3954;52.624;9.212;2022-11-15T12:16:43;3.07;;;1.90;;
7817;SDS011;3954;52.624;9.212;2022-11-15T12:19:09;2.37;;;1.60;;
7817;SDS011;3954;52.624;9.212;2022-11-15T12:21:37;2.13;;;1.60;;
7817;SDS011;3954;52.624;9.212;2022-11-15T12:24:06;1.87;;;1.70;;
7817;SDS011;3954;52.624;9.212;2022-11-15T12:26:34;2.50;;;1.80;;
7817;SDS011;3954;52.624;9.212;2022-11-15T12:29:01;3.10;;;1.70;;
7817;SDS011;3954;52.624;9.212;2022-11-15T12:31:30;2.27;;;1.73;;
7817;SDS011;3954;52.624;9.212;2022-11-15T12:34:02;3.13;;;1.77;;
7817;SDS011;3954;52.624;9.212;2022-11-15T12:36:33;1.80;;;1.50;;
7817;SDS011;3954;52.624;9.212;2022-11-15T12:39:00;3.80;;;1.77;;
7817;SDS011;3954;52.624;9.212;2022-11-15T12:41:28;2.03;;;1.80;;
7817;SDS011;3954;52.624;9.212;2022-11-15T12:43:54;1.80;;;1.43;;
7817;SDS011;3954;52.624;9.212;2022-11-15T12:46:21;1.70;;;1.40;;
7817;SDS011;3954;52.624;9.212;2022-11-15T12:48:52;2.30;;;1.50;;
7817;SDS011;3954;52.624;9.212;2022-11-15T12:51:20;4.30;;;1.70;;
7817;SDS011;3954;52.624;9.212;2022-11-15T12:53:47;1.73;;;1.60;;
7817;SDS011;3954;52.624;9.212;2022-11-15T12:56:18;2.27;;;1.70;;
7817;SDS011;3954;52.624;9.212;2022-11-15T12:58:46;1.90;;;1.70;;
7817;SDS011;3954;52.624;9.212;2022-11-15T13:04:13;2.10;;;1.90;;
7817;SDS011;3954;52.624;9.212;2022-11-15T13:06:41;2.23;;;1.50;;
7817;SDS011;3954;52.624;9.212;2022-11-15T13:11:52;2.20;;;1.90;;
7817;SDS011;3954;52.624;9.212;2022-11-15T13:17:20;2.23;;;1.93;;
7817;SDS011;3954;52.624;9.212;2022-11-15T13:19:48;3.30;;;1.83;;
7817;SDS011;3954;52.624;9.212;2022-11-15T13:22:19;2.10;;;1.90;;
7817;SDS011;3954;52.624;9.212;2022-11-15T13:25:04;2.23;;;2.00;;
7817;SDS011;3954;52.624;9.212;2022-11-15T13:27:40;2.10;;;1.80;;
7817;SDS011;3954;52.624;9.212;2022-11-15T13:30:12;3.17;;;1.60;;
7817;SDS011;3954;52.624;9.212;2022-11-15T13:32:39;2.37;;;1.87;;
7817;SDS011;3954;52.624;9.212;2022-11-15T13:35:06;2.80;;;1.80;;
7817;SDS011;3954;52.624;9.212;2022-11-15T13:37:33;1.70;;;1.43;;
7817;SDS011;3954;52.624;9.212;2022-11-15T13:40:10;2.07;;;1.70;;
7817;SDS011;3954;52.624;9.212;2022-11-15T13:42:36;4.80;;;1.90;;
7817;SDS011;3954;52.624;9.212;2022-11-15T13:45:03;1.73;;;1.63;;
7817;SDS011;3954;52.624;9.212;2022-11-15T13:47:30;2.57;;;1.50;;
7817;SDS011;3954;52.624;9.212;2022-11-15T13:49:56;2.80;;;2.07;;
7817;SDS011;3954;52.624;9.212;2022-11-15T13:52:22;2.50;;;2.20;;
7817;SDS011;3954;52.624;9.212;2022-11-15T13:54:53;3.60;;;2.10;;
7817;SDS011;3954;52.624;9.212;2022-11-15T13:57:22;2.27;;;1.97;;
7817;SDS011;3954;52.624;9.212;2022-11-15T13:59:49;3.03;;;2.40;;
7817;SDS011;3954;52.624;9.212;2022-11-15T14:02:17;2.70;;;1.90;;
7817;SDS011;3954;52.624;9.212;2022-11-15T14:04:47;2.20;;;2.00;;
7817;SDS011;3954;52.624;9.212;2022-11-15T14:07:16;2.40;;;1.90;;
7817;SDS011;3954;52.624;9.212;2022-11-15T14:09:43;2.40;;;2.20;;
7817;SDS011;3954;52.624;9.212;2022-11-15T14:12:29;2.27;;;1.93;;
7817;SDS011;3954;52.624;9.212;2022-11-15T14:14:55;3.63;;;2.10;;
7817;SDS011;3954;52.624;9.212;2022-11-15T14:17:32;3.60;;;2.30;;
7817;SDS011;3954;52.624;9.212;2022-11-15T14:19:58;2.30;;;2.10;;
7817;SDS011;3954;52.624;9.212;2022-11-15T14:22:25;2.30;;;2.10;;
7817;SDS011;3954;52.624;9.212;2022-11-15T14:27:39;2.10;;;1.90;;
7817;SDS011;3954;52.624;9.212;2022-11-15T14:30:06;3.67;;;2.60;;
7817;SDS011;3954;52.624;9.212;2022-11-15T14:32:37;3.40;;;2.23;;
7817;SDS011;3954;52.624;9.212;2022-11-15T14:35:03;2.33;;;2.13;;
7817;SDS011;3954;52.624;9.212;2022-11-15T14:37:30;3.47;;;2.30;;
7817;SDS011;3954;52.624;9.212;2022-11-15T14:39:59;4.30;;;2.50;;
7817;SDS011;3954;52.624;9.212;2022-11-15T14:42:25;2.63;;;2.43;;
7817;SDS011;3954;52.624;9.212;2022-11-15T14:44:53;2.50;;;2.30;;
7817;SDS011;3954;52.624;9.212;2022-11-15T14:47:19;3.97;;;3.20;;
7817;SDS011;3954;52.624;9.212;2022-11-15T14:49:45;2.47;;;2.27;;
7817;SDS011;3954;52.624;9.212;2022-11-15T14:52:19;4.60;;;2.90;;
7817;SDS011;3954;52.624;9.212;2022-11-15T14:54:48;3.13;;;2.50;;
7817;SDS011;3954;52.624;9.212;2022-11-15T14:57:14;2.47;;;2.20;;
7817;SDS011;3954;52.624;9.212;2022-11-15T14:59:40;3.13;;;2.50;;
7817;SDS011;3954;52.624;9.212;2022-11-15T15:02:10;4.77;;;2.53;;
7817;SDS011;3954;52.624;9.212;2022-11-15T15:04:39;2.90;;;2.53;;
7817;SDS011;3954;52.624;9.212;2022-11-15T15:07:05;3.43;;;2.60;;
7817;SDS011;3954;52.624;9.212;2022-11-15T15:09:31;3.00;;;2.70;;
7817;SDS011;3954;52.624;9.212;2022-11-15T15:11:57;5.43;;;3.10;;
7817;SDS011;3954;52.624;9.212;2022-11-15T15:14:23;3.87;;;2.77;;
7817;SDS011;3954;52.624;9.212;2022-11-15T15:16:49;2.97;;;2.77;;
7817;SDS011;3954;52.624;9.212;2022-11-15T15:19:16;4.30;;;3.10;;
7817;SDS011;3954;52.624;9.212;2022-11-15T15:21:42;6.00;;;3.23;;
7817;SDS011;3954;52.624;9.212;2022-11-15T15:24:08;6.37;;;3.00;;
7817;SDS011;3954;52.624;9.212;2022-11-15T15:26:39;4.00;;;2.80;;
7817;SDS011;3954;52.624;9.212;2022-11-15T15:29:05;5.23;;;2.83;;
7817;SDS011;3954;52.624;9.212;2022-11-15T15:31:33;3.10;;;2.53;;
7817;SDS011;3954;52.624;9.212;2022-11-15T15:33:59;4.63;;;2.83;;
7817;SDS011;3954;52.624;9.212;2022-11-15T15:36:27;6.77;;;3.17;;
7817;SDS011;3954;52.624;9.212;2022-11-15T15:38:53;5.30;;;2.93;;